Meteo Giornale » Osservazioni meteo Stati Uniti (USA) » Mount Wilson

ore: 13:20 - Osservazioni Meteo Mount Wilson
Lat. 34° 14' N Lon. 118° 4' W Alt. 1739 metri s.l.m.

sereno

20 °C

Sereno

Temp. 24 Ore

16 °C

24 °C

Sud-Ovest

9.3 Km/h

Dew point 14 °C

Umidità 68 %

Visibilità  0 Km

Il sole sorge alle ore 06:25

Il sole tramonta alle ore 19:19

Data e Ora Cielo e Fenomeni T °C DP °C Um. % Pres. hPa Vis. km Vento km/h
Oggi h: 13:20 sereno Sereno 20 14 68 0 0 SO 9.3
Oggi h: 12:20 sereno Sereno 20 14 68 0 0 S/SO 9.3
Oggi h: 11:20 sereno Sereno 20 10 52 0 0 SO 7.4
Oggi h: 10:20 sereno Sereno 19 3 34 0 0 SO 7.4
Oggi h: 09:20 sereno Sereno 18 -3 23 0 0 N 5.5
Oggi h: 08:20 sereno Sereno 17 -3 25 0 0 N 5.5
Oggi h: 07:20 sereno Sereno 16 -4 24 0 0 N 3.7
Oggi h: 06:20 sereno Sereno 17 -5 21 0 0 S/SO 9.3
Oggi h: 05:20 sereno Sereno 17 -5 21 0 0 SO 9.3
Oggi h: 04:20 sereno Sereno 17 -5 21 0 0 SO 9.3
Oggi h: 03:20 sereno Sereno 17 -4 23 0 0 SO 13
Oggi h: 02:20 sereno Sereno 18 -5 20 0 0 SO 11.1
Oggi h: 01:20 sereno Sereno 18 -3 23 0 0 S/SO 9.3
Oggi h: 00:20 sereno Sereno 19 -7 16 0 0 SO 9.3
Ieri h: 23:20 sereno Sereno 19 -4 20 0 0 SO 11.1
Ieri h: 22:20 sereno Sereno 19 1 29 0 0 SO 11.1
Ieri h: 21:20 sereno Sereno 19 1 29 0 0 SO 9.3
Ieri h: 20:20 sereno Sereno 20 0 26 0 0 O/SO 7.4
Ieri h: 19:20 sereno Sereno 21 5 35 0 0 O/SO 7.4
Ieri h: 18:20 sereno Sereno 23 10 43 0 0 O/SO 9.3
Ieri h: 17:20 sereno Sereno 23 10 43 0 0 O/SO 11.1
Ieri h: 16:20 sereno Sereno 24 13 50 0 0 O/SO 11.1
Ieri h: 15:20 sereno Sereno 24 13 50 0 0 SO 9.3